Time;durP1;ratioP1;P1;durP2;ratioP2;P2;SDS_P1;SDS_P2;PMS_P1;PMS_P2;Temp;Humidity;BMP_temperature;BMP_pressure;BME280_temperature;BME280_humidity;BME280_pressure;Samples;Min_cycle;Max_cycle;Signal;HPM_P1;HPM_P2
2023/03/13 00:01:34;;;;;;;21.73;5.90;;;6.80;99.90;;;;;;5067536;28;20206;-68
2023/03/13 00:04:01;;;;;;;22.87;5.37;;;6.80;99.90;;;;;;5067152;27;20227;-68
2023/03/13 00:06:32;;;;;;;22.67;5.13;;;6.80;99.90;;;;;;5075426;27;20290;-68
2023/03/13 00:09:00;;;;;;;14.33;4.60;;;6.80;99.90;;;;;;5043831;27;20212;-68
2023/03/13 00:11:27;;;;;;;17.00;5.00;;;7.00;99.90;;;;;;5091970;28;20196;-68
2023/03/13 00:13:55;;;;;;;28.10;5.43;;;6.80;99.90;;;;;;5076472;28;20204;-68
2023/03/13 00:16:24;;;;;;;23.27;5.60;;;6.90;99.90;;;;;;5079516;27;20199;-68
2023/03/13 00:18:52;;;;;;;24.27;6.07;;;6.90;99.90;;;;;;5088151;28;20200;-68
2023/03/13 00:21:21;;;;;;;21.10;5.50;;;6.80;99.90;;;;;;5089776;27;20705;-68
2023/03/13 00:23:48;;;;;;;12.60;5.37;;;7.00;99.90;;;;;;5052441;28;20227;-68
2023/03/13 00:26:16;;;;;;;15.77;4.93;;;7.00;99.90;;;;;;5075517;28;20196;-68
2023/03/13 00:28:43;;;;;;;26.97;5.33;;;7.00;99.90;;;;;;5074410;28;20210;-68
2023/03/13 00:31:12;;;;;;;18.40;4.93;;;7.00;99.90;;;;;;5087484;27;20203;-68
2023/03/13 00:33:42;;;;;;;17.50;5.03;;;7.00;99.90;;;;;;5079117;27;20204;-68
2023/03/13 00:36:10;;;;;;;21.67;6.67;;;7.00;99.90;;;;;;5083864;27;20277;-68
2023/03/13 00:38:37;;;;;;;42.83;7.23;;;7.00;99.90;;;;;;5051488;27;20212;-68
2023/03/13 00:41:06;;;;;;;19.53;5.60;;;7.00;99.90;;;;;;5080247;27;20200;-68
2023/03/13 00:43:34;;;;;;;16.47;5.83;;;7.00;99.90;;;;;;5091964;28;20805;-68
2023/03/13 00:46:01;;;;;;;22.43;6.03;;;7.10;99.90;;;;;;5077754;28;20211;-68
2023/03/13 00:48:28;;;;;;;28.10;6.17;;;7.00;99.90;;;;;;5082550;27;20191;-68
2023/03/13 00:50:56;;;;;;;14.37;4.97;;;7.00;99.90;;;;;;5086374;28;20198;-68
2023/03/13 00:53:23;;;;;;;23.97;5.10;;;7.00;99.90;;;;;;5084208;28;20205;-68
2023/03/13 00:55:54;;;;;;;26.00;5.40;;;7.00;99.90;;;;;;5056719;28;20239;-68
2023/03/13 00:58:22;;;;;;;22.90;5.77;;;7.00;99.90;;;;;;5076284;28;20224;-68
2023/03/13 01:00:49;;;;;;;21.27;5.30;;;7.00;99.90;;;;;;5071191;27;20207;-68
2023/03/13 01:03:16;;;;;;;25.83;5.63;;;7.00;99.90;;;;;;5075147;28;20306;-68
2023/03/13 01:05:43;;;;;;;15.70;4.93;;;7.00;99.90;;;;;;5085520;28;20223;-68
2023/03/13 01:08:11;;;;;;;20.83;5.30;;;7.00;99.90;;;;;;5075571;28;22911;-68
2023/03/13 01:10:38;;;;;;;25.73;5.80;;;7.00;99.90;;;;;;5053668;27;20223;-68
2023/03/13 01:13:06;;;;;;;25.47;5.20;;;7.00;99.90;;;;;;5063451;27;20200;-68
2023/03/13 01:15:35;;;;;;;30.00;6.20;;;7.00;99.90;;;;;;5074286;27;21046;-68
2023/03/13 01:18:02;;;;;;;23.77;4.93;;;7.00;99.90;;;;;;5080890;27;20294;-68
2023/03/13 01:20:29;;;;;;;23.37;4.90;;;7.00;99.90;;;;;;5075113;27;20223;-68
2023/03/13 01:22:56;;;;;;;18.60;4.43;;;7.00;99.90;;;;;;5081988;27;20196;-68
2023/03/13 01:25:24;;;;;;;25.80;4.83;;;7.00;99.90;;;;;;5049890;28;20223;-68
2023/03/13 01:27:51;;;;;;;37.90;5.33;;;7.00;99.90;;;;;;5070002;28;20210;-68
2023/03/13 01:30:18;;;;;;;21.40;4.97;;;7.00;99.90;;;;;;5076083;28;20207;-68
2023/03/13 01:32:44;;;;;;;23.53;4.70;;;7.00;99.90;;;;;;5089154;28;20199;-68
2023/03/13 01:35:11;;;;;;;17.07;5.17;;;7.10;99.90;;;;;;5071522;28;20691;-69
2023/03/13 01:37:38;;;;;;;22.20;4.37;;;7.10;99.90;;;;;;5073263;28;20222;-68
2023/03/13 01:40:06;;;;;;;30.47;5.53;;;7.10;99.90;;;;;;5042516;28;20222;-69
2023/03/13 01:42:53;;;;;;;22.37;4.97;;;7.10;99.90;;;;;;5080598;28;20191;-68
2023/03/13 01:45:59;;;;;;;26.80;4.23;;;7.10;99.90;;;;;;5074752;28;20223;-69
2023/03/13 01:48:31;;;;;;;18.13;4.47;;;7.10;99.90;;;;;;5080940;28;20665;-68
2023/03/13 01:51:01;;;;;;;24.70;4.53;;;7.10;99.90;;;;;;5060706;28;21098;-69
2023/03/13 01:53:31;;;;;;;14.77;3.70;;;7.10;99.90;;;;;;5085294;28;20199;-68
2023/03/13 01:55:59;;;;;;;30.47;5.27;;;7.10;99.90;;;;;;5038918;28;20226;-68
2023/03/13 01:58:29;;;;;;;19.30;4.20;;;7.10;99.90;;;;;;5075472;28;20215;-68
2023/03/13 02:00:56;;;;;;;20.30;4.43;;;7.10;99.90;;;;;;5072850;28;20226;-68
2023/03/13 02:03:23;;;;;;;19.33;4.57;;;7.10;99.90;;;;;;5081196;28;20199;-69
2023/03/13 02:05:51;;;;;;;18.67;3.73;;;7.10;99.90;;;;;;5077560;28;20246;-69
2023/03/13 02:08:21;;;;;;;16.63;3.27;;;7.10;99.90;;;;;;5067576;28;20603;-68
2023/03/13 02:10:53;;;;;;;23.90;6.07;;;7.10;99.90;;;;;;5065114;28;20242;-68
2023/03/13 02:13:20;;;;;;;24.97;5.13;;;7.10;99.90;;;;;;5072871;28;20210;-68
2023/03/13 02:15:49;;;;;;;18.43;3.87;;;7.10;99.90;;;;;;5076308;28;20203;-68
2023/03/13 02:18:16;;;;;;;17.87;4.50;;;7.10;99.90;;;;;;5082626;28;20191;-68
2023/03/13 02:20:44;;;;;;;23.57;4.37;;;7.10;99.90;;;;;;5079910;28;20200;-68
2023/03/13 02:23:19;;;;;;;14.30;3.27;;;7.20;99.90;;;;;;5070387;28;20200;-68
2023/03/13 02:25:48;;;;;;;19.03;3.77;;;7.20;99.90;;;;;;5077297;28;20227;-68
2023/03/13 02:28:20;;;;;;;23.37;4.00;;;7.20;99.90;;;;;;5053047;28;20688;-68
2023/03/13 02:30:50;;;;;;;23.40;4.37;;;7.20;99.90;;;;;;5078061;28;20959;-69
2023/03/13 02:33:19;;;;;;;29.30;4.10;;;7.20;99.90;;;;;;5087183;28;20207;-68
2023/03/13 02:35:47;;;;;;;20.00;4.20;;;7.30;99.90;;;;;;5085256;28;20204;-68
2023/03/13 02:38:19;;;;;;;19.07;4.30;;;7.00;99.90;;;;;;5068341;28;20998;-68
2023/03/13 02:40:50;;;;;;;17.90;3.67;;;7.30;99.90;;;;;;5076694;28;20199;-68
2023/03/13 02:43:24;;;;;;;17.47;4.10;;;7.30;99.90;;;;;;5056282;28;20334;-68
2023/03/13 02:46:06;;;;;;;24.17;3.90;;;7.30;99.90;;;;;;5080900;28;20230;-68
2023/03/13 02:48:35;;;;;;;18.57;3.93;;;7.30;99.90;;;;;;5087306;28;20202;-68
2023/03/13 02:51:06;;;;;;;24.27;3.67;;;7.30;99.90;;;;;;5082515;28;20199;-68
2023/03/13 02:53:34;;;;;;;15.50;3.67;;;7.30;99.90;;;;;;5083863;28;20740;-69
2023/03/13 02:56:04;;;;;;;22.13;4.20;;;7.30;99.90;;;;;;5064503;28;20242;-69
2023/03/13 02:58:38;;;;;;;15.53;4.17;;;7.40;99.90;;;;;;5080955;28;20212;-69
2023/03/13 03:01:06;;;;;;;15.97;4.00;;;7.30;99.90;;;;;;5054300;28;20199;-69
2023/03/13 03:03:33;;;;;;;17.20;3.97;;;7.40;99.90;;;;;;5080093;28;20207;-68
2023/03/13 03:06:00;;;;;;;17.23;2.77;;;7.40;99.90;;;;;;5083439;28;20219;-68
2023/03/13 03:08:27;;;;;;;21.23;3.77;;;7.40;99.90;;;;;;5084486;28;20644;-68
2023/03/13 03:10:54;;;;;;;22.53;4.10;;;7.40;99.90;;;;;;5075580;28;20195;-68
2023/03/13 03:13:22;;;;;;;21.07;3.67;;;7.40;99.90;;;;;;5073629;28;20199;-69
2023/03/13 03:15:49;;;;;;;20.67;3.50;;;7.40;99.90;;;;;;5056187;28;20207;-68
2023/03/13 03:18:16;;;;;;;16.93;3.70;;;7.40;99.90;;;;;;5076822;28;20643;-68
2023/03/13 03:20:43;;;;;;;13.03;3.70;;;7.50;99.90;;;;;;5091385;28;20204;-69
2023/03/13 03:23:09;;;;;;;15.33;3.30;;;7.40;99.90;;;;;;5086965;27;20203;-69
2023/03/13 03:25:36;;;;;;;21.80;4.13;;;7.50;99.90;;;;;;5069812;28;20712;-69
2023/03/13 03:28:03;;;;;;;19.63;3.77;;;7.50;99.90;;;;;;5077580;28;20203;-69
2023/03/13 03:30:31;;;;;;;14.57;3.57;;;7.50;99.90;;;;;;5059518;27;20203;-69
2023/03/13 03:32:58;;;;;;;13.07;4.20;;;7.50;99.90;;;;;;5087504;28;20656;-69
2023/03/13 03:35:25;;;;;;;16.80;3.90;;;7.50;99.90;;;;;;5091840;27;20203;-69
2023/03/13 03:37:52;;;;;;;19.50;3.87;;;7.50;99.90;;;;;;5076339;27;20578;-69
2023/03/13 03:40:20;;;;;;;30.00;4.30;;;7.50;99.90;;;;;;5089583;28;20196;-69
2023/03/13 03:42:47;;;;;;;19.23;4.17;;;7.50;99.90;;;;;;5065226;28;20206;-69
2023/03/13 03:45:14;;;;;;;20.83;4.53;;;7.60;99.90;;;;;;5058588;28;20266;-69
2023/03/13 03:47:42;;;;;;;16.43;3.87;;;7.60;99.90;;;;;;5091798;27;20203;-69
2023/03/13 03:50:10;;;;;;;22.37;4.20;;;7.60;99.90;;;;;;5090119;27;20210;-69
2023/03/13 03:52:38;;;;;;;22.97;4.00;;;7.60;99.90;;;;;;5082031;27;20195;-69
2023/03/13 03:55:05;;;;;;;18.43;4.47;;;7.60;99.90;;;;;;5088797;27;20227;-69
2023/03/13 03:57:32;;;;;;;19.60;4.27;;;7.60;99.90;;;;;;5080239;27;20199;-69
2023/03/13 03:59:59;;;;;;;14.50;4.73;;;7.60;99.90;;;;;;5081258;28;20235;-69
2023/03/13 04:02:26;;;;;;;23.07;4.20;;;7.70;99.90;;;;;;5060051;27;20779;-69
2023/03/13 04:04:54;;;;;;;15.13;4.20;;;7.60;99.90;;;;;;5087956;27;20219;-69
2023/03/13 04:07:21;;;;;;;16.50;4.00;;;7.70;99.90;;;;;;5092824;28;20200;-69
2023/03/13 04:09:48;;;;;;;13.33;4.50;;;7.70;99.90;;;;;;5080027;27;20204;-69
2023/03/13 04:12:15;;;;;;;21.30;5.10;;;7.70;99.90;;;;;;5092964;27;20745;-69
2023/03/13 04:14:42;;;;;;;11.07;4.40;;;7.70;99.90;;;;;;5077549;28;20212;-69
2023/03/13 04:17:09;;;;;;;19.60;4.60;;;7.70;99.90;;;;;;5049674;27;20203;-69
2023/03/13 04:19:36;;;;;;;21.07;4.93;;;7.70;99.90;;;;;;5090069;28;20187;-69
2023/03/13 04:22:04;;;;;;;21.83;4.40;;;7.70;99.90;;;;;;5080595;28;20208;-69
2023/03/13 04:24:31;;;;;;;14.10;5.07;;;7.70;99.90;;;;;;5088008;28;20203;-69
2023/03/13 04:26:58;;;;;;;16.70;4.47;;;7.80;99.90;;;;;;5088685;27;20202;-69
2023/03/13 04:29:25;;;;;;;14.10;4.30;;;7.80;99.90;;;;;;5080893;27;20205;-69
2023/03/13 04:31:52;;;;;;;11.77;3.93;;;7.80;99.90;;;;;;5062280;27;20208;-69
2023/03/13 04:34:19;;;;;;;18.77;5.07;;;7.80;99.90;;;;;;5087166;28;20460;-69
2023/03/13 04:36:45;;;;;;;16.90;4.73;;;7.80;99.90;;;;;;5080133;28;20585;-69
2023/03/13 04:39:14;;;;;;;7.03;4.03;;;7.80;99.90;;;;;;5052039;27;20223;-69
2023/03/13 04:41:41;;;;;;;11.20;3.57;;;7.90;99.90;;;;;;5069180;27;20574;-69
2023/03/13 04:44:07;;;;;;;12.20;4.20;;;7.80;99.90;;;;;;5067835;27;20204;-69
2023/03/13 04:46:34;;;;;;;15.77;4.23;;;7.90;99.90;;;;;;5057560;27;20257;-69
2023/03/13 04:49:01;;;;;;;11.80;4.80;;;7.90;99.90;;;;;;5040711;28;20199;-70
2023/03/13 04:51:29;;;;;;;8.00;4.00;;;7.90;99.90;;;;;;5072986;28;20219;-69
2023/03/13 04:53:56;;;;;;;16.83;4.53;;;8.00;99.90;;;;;;5075385;28;20268;-69
2023/03/13 04:56:27;;;;;;;10.93;4.47;;;8.00;99.90;;;;;;5072795;28;20279;-69
2023/03/13 04:58:54;;;;;;;14.80;4.30;;;8.00;99.90;;;;;;5079809;28;20192;-69
2023/03/13 05:01:21;;;;;;;14.27;4.30;;;8.00;99.90;;;;;;5059171;28;20202;-69
2023/03/13 05:03:48;;;;;;;11.73;4.13;;;8.00;99.90;;;;;;5053042;28;20309;-69
2023/03/13 05:06:15;;;;;;;8.57;4.00;;;8.00;99.90;;;;;;5071127;28;20219;-69
2023/03/13 05:08:42;;;;;;;6.83;3.37;;;8.10;99.90;;;;;;5073636;27;20208;-69
2023/03/13 05:11:09;;;;;;;8.00;4.37;;;8.10;99.90;;;;;;5070234;27;20231;-69
2023/03/13 05:13:37;;;;;;;8.73;3.63;;;8.10;99.90;;;;;;5081472;28;20203;-69
2023/03/13 05:16:05;;;;;;;9.57;3.50;;;8.10;99.90;;;;;;5066674;27;20195;-69
2023/03/13 05:18:32;;;;;;;6.10;3.93;;;8.20;99.90;;;;;;5052876;27;20227;-69
2023/03/13 05:20:59;;;;;;;7.77;3.90;;;8.20;99.90;;;;;;5071857;27;20199;-70
2023/03/13 05:23:26;;;;;;;7.27;3.53;;;8.30;99.90;;;;;;5070018;27;20200;-69
2023/03/13 05:25:53;;;;;;;9.87;3.47;;;8.30;99.90;;;;;;5063903;28;21106;-70
2023/03/13 05:28:19;;;;;;;5.37;3.47;;;8.40;99.90;;;;;;5079545;28;20993;-70
2023/03/13 05:30:48;;;;;;;6.13;3.20;;;8.40;99.90;;;;;;5061279;28;21125;-70
2023/03/13 05:33:15;;;;;;;13.60;3.07;;;8.40;99.90;;;;;;5047739;28;20226;-69
2023/03/13 05:35:42;;;;;;;5.57;3.70;;;8.40;99.90;;;;;;5075186;28;20430;-69
2023/03/13 05:38:09;;;;;;;6.60;3.30;;;8.40;99.90;;;;;;5057795;27;20227;-69
2023/03/13 05:40:36;;;;;;;5.63;3.00;;;8.60;99.90;;;;;;5058840;28;20222;-69
2023/03/13 05:43:03;;;;;;;4.07;3.17;;;;;;;;;;5066916;28;20219;-70
2023/03/13 05:45:30;;;;;;;4.40;2.73;;;8.60;99.90;;;;;;5045721;28;20223;-70
2023/03/13 05:47:58;;;;;;;7.57;3.23;;;8.60;99.90;;;;;;5052946;27;20222;-69
2023/03/13 05:50:25;;;;;;;3.83;3.17;;;8.60;99.90;;;;;;5063757;28;20674;-69
2023/03/13 05:52:52;;;;;;;3.63;3.13;;;8.70;99.90;;;;;;5063252;28;20877;-70
2023/03/13 05:55:20;;;;;;;5.40;3.00;;;8.80;99.90;;;;;;5041884;28;20231;-70
2023/03/13 05:57:48;;;;;;;4.00;3.60;;;8.70;99.90;;;;;;5061495;28;20214;-69
2023/03/13 06:00:17;;;;;;;3.63;2.97;;;8.70;99.90;;;;;;5068193;27;20220;-69
2023/03/13 06:02:44;;;;;;;3.83;3.27;;;8.80;99.90;;;;;;5056716;28;20207;-69
2023/03/13 06:05:13;;;;;;;3.47;3.07;;;8.80;99.90;;;;;;5044084;28;20228;-70
2023/03/13 06:07:40;;;;;;;4.27;3.27;;;8.80;99.90;;;;;;5067952;28;20213;-69
2023/03/13 06:10:07;;;;;;;8.27;3.10;;;8.80;99.90;;;;;;5048952;28;20216;-70
2023/03/13 06:12:34;;;;;;;5.50;3.23;;;8.90;99.90;;;;;;5058468;28;20615;-70
2023/03/13 06:15:01;;;;;;;3.60;3.30;;;8.90;99.90;;;;;;5069842;28;20337;-70
2023/03/13 06:17:28;;;;;;;3.73;3.30;;;8.90;99.90;;;;;;5062827;28;20215;-69
2023/03/13 06:19:55;;;;;;;5.07;3.10;;;8.90;99.90;;;;;;5048702;28;20894;-70
2023/03/13 06:22:23;;;;;;;5.63;3.25;;;9.00;99.90;;;;;;5072771;28;23149;-69
2023/03/13 06:24:50;;;;;;;8.13;3.80;;;9.00;99.90;;;;;;5070633;28;20223;-69
2023/03/13 06:27:17;;;;;;;3.67;3.35;;;9.00;99.90;;;;;;5066509;28;20228;-70
2023/03/13 06:29:44;;;;;;;7.87;3.50;;;9.10;99.90;;;;;;5082834;28;20203;-70
2023/03/13 06:32:11;;;;;;;5.10;3.55;;;9.10;99.90;;;;;;5071028;28;20889;-70
2023/03/13 06:34:38;;;;;;;4.30;3.45;;;9.10;99.90;;;;;;5050456;28;20226;-69
2023/03/13 06:37:05;;;;;;;3.50;3.20;;;9.20;99.90;;;;;;5078007;28;20636;-70
2023/03/13 06:39:33;;;;;;;5.60;3.53;;;9.20;99.90;;;;;;5045354;28;20252;-70
2023/03/13 06:42:00;;;;;;;4.20;3.65;;;9.20;99.90;;;;;;5082518;28;20203;-70
2023/03/13 06:44:27;;;;;;;4.73;3.20;;;9.30;99.90;;;;;;5074428;28;20199;-70
2023/03/13 06:46:54;;;;;;;4.97;3.03;;;9.30;99.90;;;;;;5071153;28;20234;-69
2023/03/13 06:49:21;;;;;;;5.97;3.30;;;9.40;99.90;;;;;;5047531;28;20208;-70
2023/03/13 06:51:48;;;;;;;4.75;2.90;;;9.50;99.90;;;;;;5086070;27;21095;-70
2023/03/13 06:54:15;;;;;;;4.45;3.17;;;9.50;99.90;;;;;;5078921;27;21026;-70
2023/03/13 06:56:43;;;;;;;3.58;2.95;;;9.50;99.90;;;;;;5087556;28;20301;-69
2023/03/13 06:59:10;;;;;;;3.83;2.90;;;9.50;99.90;;;;;;5080187;27;20219;-70
2023/03/13 07:01:37;;;;;;;3.83;2.93;;;9.60;99.90;;;;;;5074045;28;20199;-70
2023/03/13 07:04:04;;;;;;;2.75;2.55;;;9.60;99.90;;;;;;5071241;27;20214;-69
2023/03/13 07:06:31;;;;;;;5.72;3.78;;;9.70;99.90;;;;;;5044534;27;20230;-70
2023/03/13 07:08:58;;;;;;;4.95;4.00;;;9.80;99.90;;;;;;5067822;27;20200;-70
2023/03/13 07:11:25;;;;;;;3.85;3.40;;;9.80;99.90;;;;;;5068411;27;20996;-70
2023/03/13 07:13:56;;;;;;;4.35;3.85;;;9.90;99.90;;;;;;5079846;27;20198;-70
2023/03/13 07:16:23;;;;;;;4.35;3.08;;;9.90;99.90;;;;;;5068249;27;20224;-70
2023/03/13 07:18:51;;;;;;;4.55;2.25;;;10.00;99.90;;;;;;5060738;27;20208;-70
2023/03/13 07:21:18;;;;;;;2.42;2.22;;;10.20;99.90;;;;;;5048105;27;20211;-70
2023/03/13 07:23:44;;;;;;;3.33;2.03;;;10.20;99.90;;;;;;5085286;27;20281;-70
2023/03/13 07:26:14;;;;;;;2.72;2.05;;;10.20;99.90;;;;;;5075177;28;20218;-70
2023/03/13 07:28:41;;;;;;;4.45;2.03;;;10.20;99.90;;;;;;5071855;27;20211;-70
2023/03/13 07:31:12;;;;;;;2.63;2.40;;;10.30;99.90;;;;;;5068765;27;20199;-70
2023/03/13 07:33:39;;;;;;;3.13;2.10;;;10.30;99.90;;;;;;5069308;27;20786;-70
2023/03/13 07:36:07;;;;;;;3.65;2.47;;;10.40;99.90;;;;;;5044847;27;20205;-70
2023/03/13 07:38:34;;;;;;;2.40;2.17;;;10.40;99.90;;;;;;5084500;27;20219;-70
2023/03/13 07:41:02;;;;;;;4.68;2.15;;;10.40;99.90;;;;;;5076499;28;20204;-70
2023/03/13 07:43:30;;;;;;;3.35;2.33;;;10.50;99.90;;;;;;5073060;27;20325;-70
2023/03/13 07:45:58;;;;;;;4.32;2.40;;;10.60;99.90;;;;;;5074781;27;20223;-70
2023/03/13 07:48:29;;;;;;;3.33;2.67;;;10.60;99.90;;;;;;5066646;27;21314;-70
2023/03/13 07:50:57;;;;;;;4.68;2.85;;;10.60;99.90;;;;;;5048357;27;20223;-70
2023/03/13 07:53:24;;;;;;;3.80;2.88;;;10.60;99.90;;;;;;5070555;28;20788;-70
2023/03/13 07:55:56;;;;;;;4.80;2.75;;;10.70;99.90;;;;;;5067435;27;20255;-70
2023/03/13 07:58:23;;;;;;;4.47;2.83;;;10.80;99.90;;;;;;5077040;28;21033;-70
2023/03/13 08:00:51;;;;;;;3.35;3.00;;;10.80;99.90;;;;;;5070916;27;20196;-70
2023/03/13 08:03:18;;;;;;;3.33;2.83;;;10.90;99.90;;;;;;5078520;27;20304;-70
2023/03/13 08:05:46;;;;;;;5.40;2.72;;;10.90;99.90;;;;;;5083103;27;21739;-70
2023/03/13 08:08:13;;;;;;;6.60;3.10;;;10.90;99.90;;;;;;5050472;27;20195;-70
2023/03/13 08:10:40;;;;;;;4.50;3.10;;;10.90;99.90;;;;;;5086107;28;20199;-70
2023/03/13 08:13:07;;;;;;;4.25;2.92;;;11.00;99.90;;;;;;5068742;28;20204;-70
2023/03/13 08:15:34;;;;;;;6.70;3.55;;;11.00;99.90;;;;;;5079299;28;20329;-70
2023/03/13 08:18:01;;;;;;;7.35;3.22;;;11.00;99.90;;;;;;5075072;27;20215;-70
2023/03/13 08:20:28;;;;;;;6.10;3.33;;;11.00;99.90;;;;;;5072884;27;20575;-71
2023/03/13 08:22:57;;;;;;;10.23;4.00;;;11.00;99.90;;;;;;5056091;27;20234;-70
2023/03/13 08:25:24;;;;;;;4.93;3.28;;;11.00;99.90;;;;;;5086277;27;20665;-70
2023/03/13 08:27:51;;;;;;;5.60;2.90;;;11.00;99.90;;;;;;5070744;27;20769;-71
2023/03/13 08:30:18;;;;;;;6.40;3.17;;;11.10;99.90;;;;;;5067339;28;20570;-71
2023/03/13 08:32:45;;;;;;;7.38;3.75;;;11.10;99.90;;;;;;5087010;27;20192;-71
2023/03/13 08:35:12;;;;;;;6.13;3.85;;;11.10;99.90;;;;;;5075379;28;20199;-71
2023/03/13 08:37:39;;;;;;;7.72;3.85;;;11.10;99.90;;;;;;5057517;28;20337;-70
2023/03/13 08:40:12;;;;;;;6.05;3.65;;;11.10;99.90;;;;;;5084565;28;20211;-70
2023/03/13 08:42:39;;;;;;;5.40;4.03;;;11.10;99.90;;;;;;5086381;28;20207;-70
2023/03/13 08:45:07;;;;;;;10.23;4.78;;;11.10;99.90;;;;;;5065532;27;20673;-70
2023/03/13 08:47:35;;;;;;;6.32;3.67;;;11.10;99.90;;;;;;5063952;28;20583;-70
2023/03/13 08:50:02;;;;;;;9.23;3.83;;;11.20;99.90;;;;;;5069641;28;20207;-70
2023/03/13 08:52:28;;;;;;;7.90;4.20;;;11.20;99.90;;;;;;5064189;27;20229;-70
2023/03/13 08:54:55;;;;;;;9.82;4.60;;;11.20;99.90;;;;;;5026930;27;20775;-70
2023/03/13 08:57:24;;;;;;;8.25;3.67;;;11.20;99.90;;;;;;5071106;27;20218;-70
2023/03/13 08:59:51;;;;;;;14.38;4.57;;;11.20;99.90;;;;;;5053021;27;21219;-69
2023/03/13 09:02:19;;;;;;;5.55;4.10;;;11.30;99.90;;;;;;5044922;27;20865;-70
2023/03/13 09:04:47;;;;;;;6.32;3.90;;;11.40;99.90;;;;;;5082053;27;20204;-70
2023/03/13 09:07:14;;;;;;;4.60;3.72;;;11.30;99.90;;;;;;5066687;28;20227;-70
2023/03/13 09:09:42;;;;;;;6.50;4.57;;;11.40;99.90;;;;;;5056059;27;20264;-70
2023/03/13 09:12:10;;;;;;;6.10;4.55;;;11.50;99.90;;;;;;5083588;27;20222;-70
2023/03/13 09:14:38;;;;;;;5.65;4.43;;;11.60;99.90;;;;;;5080038;27;20204;-70
2023/03/13 09:17:05;;;;;;;6.85;3.75;;;11.40;99.90;;;;;;5058626;27;20724;-70
2023/03/13 09:19:32;;;;;;;5.20;4.00;;;11.40;99.90;;;;;;5078045;28;20200;-70
2023/03/13 09:21:59;;;;;;;5.25;4.00;;;11.50;99.90;;;;;;5078725;27;20203;-69
2023/03/13 09:24:26;;;;;;;7.47;3.78;;;11.50;99.90;;;;;;5041222;27;20212;-69
2023/03/13 09:26:53;;;;;;;5.38;3.63;;;11.50;99.90;;;;;;5063782;27;20228;-70
2023/03/13 09:29:20;;;;;;;5.97;3.45;;;11.50;99.90;;;;;;5076764;27;20207;-70
2023/03/13 09:31:48;;;;;;;4.05;3.30;;;11.50;99.90;;;;;;5055794;27;20216;-70
2023/03/13 09:34:15;;;;;;;7.65;3.63;;;11.50;99.90;;;;;;5072085;27;21936;-70
2023/03/13 09:36:42;;;;;;;4.35;3.35;;;11.50;99.90;;;;;;5068582;28;23225;-71
2023/03/13 09:39:09;;;;;;;5.07;3.40;;;11.50;99.90;;;;;;5074747;28;21087;-69
2023/03/13 09:41:40;;;;;;;6.70;3.08;;;11.70;99.90;;;;;;5050596;27;20220;-70
2023/03/13 09:44:12;;;;;;;5.40;3.22;;;11.70;99.90;;;;;;5081571;28;20917;-70
2023/03/13 09:46:45;;;;;;;6.43;3.15;;;11.80;99.90;;;;;;5057803;28;20295;-70
2023/03/13 09:49:33;;;;;;;4.72;2.83;;;11.80;99.90;;;;;;5063957;28;20594;-71
2023/03/13 09:52:13;;;;;;;3.50;3.08;;;11.80;99.90;;;;;;5083629;27;20213;-70
2023/03/13 09:54:44;;;;;;;3.78;2.65;;;11.90;99.90;;;;;;5046404;28;21012;-70
2023/03/13 09:57:19;;;;;;;4.20;3.17;;;12.00;99.90;;;;;;5054747;28;20685;-69
2023/03/13 09:59:55;;;;;;;5.97;3.03;;;11.90;99.90;;;;;;5062884;27;20204;-70
2023/03/13 10:02:29;;;;;;;7.32;3.13;;;12.00;99.90;;;;;;5057571;28;21021;-70
2023/03/13 10:05:10;;;;;;;3.25;2.70;;;12.00;99.90;;;;;;5055724;28;20200;-70
2023/03/13 10:07:37;;;;;;;8.35;2.80;;;12.00;99.90;;;;;;5077959;28;20223;-70
2023/03/13 10:10:11;;;;;;;4.35;2.60;;;12.00;99.90;;;;;;5071410;28;20973;-70
2023/03/13 10:12:42;;;;;;;4.57;2.60;;;12.10;99.90;;;;;;5055579;28;20215;-70
2023/03/13 10:15:31;;;;;;;6.40;2.47;;;12.00;99.90;;;;;;5074037;28;20210;-70
2023/03/13 10:18:01;;;;;;;6.20;2.67;;;12.10;99.90;;;;;;5063526;28;20203;-70
2023/03/13 10:20:34;;;;;;;8.80;2.92;;;12.10;99.90;;;;;;5064634;28;20191;-70
2023/03/13 10:23:06;;;;;;;3.67;2.50;;;12.10;99.90;;;;;;5081124;28;20197;-70
2023/03/13 10:25:37;;;;;;;10.00;2.45;;;12.20;99.90;;;;;;5060091;28;20195;-70
2023/03/13 10:28:04;;;;;;;5.72;2.20;;;12.20;99.90;;;;;;5056547;28;20636;-70
2023/03/13 10:30:34;;;;;;;6.47;2.58;;;12.30;99.90;;;;;;5081542;27;20196;-70
2023/03/13 10:33:17;;;;;;;4.40;2.30;;;12.40;99.90;;;;;;5078633;27;20261;-70
2023/03/13 10:35:45;;;;;;;2.95;1.90;;;12.50;99.90;;;;;;5065048;28;20210;-70
2023/03/13 10:38:15;;;;;;;4.15;2.17;;;12.50;99.90;;;;;;5067816;28;20211;-71
2023/03/13 10:40:42;;;;;;;3.78;1.95;;;12.60;99.90;;;;;;5065983;28;20226;-70
2023/03/13 10:43:17;;;;;;;7.28;2.25;;;12.80;99.90;;;;;;5043873;27;20259;-69
2023/03/13 10:45:44;;;;;;;2.35;1.80;;;12.80;99.90;;;;;;5077270;27;20218;-70
2023/03/13 10:48:15;;;;;;;4.75;1.90;;;12.80;99.90;;;;;;5081466;27;20230;-70
2023/03/13 10:50:43;;;;;;;3.88;2.03;;;12.90;99.90;;;;;;5064829;27;20191;-70
2023/03/13 10:53:24;;;;;;;4.55;1.60;;;12.90;99.90;;;;;;5067881;27;20207;-70
2023/03/13 10:55:54;;;;;;;2.10;1.90;;;12.90;99.90;;;;;;5082861;28;20227;-70
2023/03/13 10:58:24;;;;;;;3.50;1.55;;;12.90;99.90;;;;;;5045043;28;20214;-70
2023/03/13 11:00:51;;;;;;;3.80;1.70;;;12.90;99.90;;;;;;5075495;27;20211;-70
2023/03/13 11:03:22;;;;;;;1.98;1.60;;;12.90;99.90;;;;;;5082159;27;20680;-70
2023/03/13 11:05:58;;;;;;;5.70;1.70;;;13.00;99.90;;;;;;5079224;28;20204;-70
2023/03/13 11:08:27;;;;;;;5.07;1.50;;;13.00;99.90;;;;;;5068195;27;20716;-70
2023/03/13 11:10:57;;;;;;;4.22;1.48;;;13.10;99.90;;;;;;5080816;27;20195;-70
2023/03/13 11:13:34;;;;;;;1.60;1.50;;;13.10;99.90;;;;;;5043848;27;21032;-70
2023/03/13 11:16:13;;;;;;;3.53;1.70;;;13.10;99.90;;;;;;5068756;27;20219;-70
2023/03/13 11:18:49;;;;;;;2.72;1.67;;;13.10;99.90;;;;;;5066522;27;20203;-70
2023/03/13 11:21:23;;;;;;;2.45;1.60;;;13.00;99.90;;;;;;5077386;27;20223;-70
2023/03/13 11:24:00;;;;;;;3.78;1.98;;;13.00;99.90;;;;;;5065594;28;20512;-70
2023/03/13 11:26:35;;;;;;;2.13;1.60;;;13.00;99.90;;;;;;5086332;28;21768;-70
2023/03/13 11:29:09;;;;;;;3.83;1.50;;;13.10;99.90;;;;;;5038554;27;21628;-70
2023/03/13 11:31:41;;;;;;;2.45;1.60;;;13.30;99.90;;;;;;5078663;28;20199;-69
2023/03/13 11:34:15;;;;;;;3.60;2.20;;;13.50;99.90;;;;;;5065479;28;20208;-70
2023/03/13 11:36:52;;;;;;;2.95;1.52;;;13.60;99.90;;;;;;5079903;27;20199;-70
2023/03/13 11:39:47;;;;;;;4.40;1.60;;;13.60;99.90;;;;;;5058623;28;20199;-70
2023/03/13 11:42:33;;;;;;;7.55;1.52;;;13.60;99.90;;;;;;5081270;27;20516;-70
2023/03/13 11:45:07;;;;;;;2.10;1.50;;;13.50;99.90;;;;;;5042556;27;20308;-70
2023/03/13 11:47:48;;;;;;;2.00;1.58;;;13.50;99.90;;;;;;5081848;27;20223;-69
2023/03/13 11:50:25;;;;;;;3.50;1.90;;;13.60;99.90;;;;;;5073049;28;20280;-69
2023/03/13 11:53:12;;;;;;;4.07;2.00;;;13.50;99.90;;;;;;5076449;27;20665;-69
2023/03/13 11:55:58;;;;;;;4.30;1.60;;;13.50;99.90;;;;;;5047789;27;20227;-70
2023/03/13 11:58:52;;;;;;;3.85;1.67;;;13.40;99.90;;;;;;5079190;27;20204;-70
2023/03/13 12:01:21;;;;;;;4.20;1.42;;;13.40;99.90;;;;;;5078458;27;20202;-69
2023/03/13 12:03:57;;;;;;;1.67;1.23;;;13.40;99.90;;;;;;5080172;27;20226;-70
2023/03/13 12:06:29;;;;;;;3.28;1.40;;;13.40;99.90;;;;;;5072803;27;20730;-70
2023/03/13 12:09:06;;;;;;;3.17;1.30;;;13.50;99.90;;;;;;5080501;27;21048;-70
2023/03/13 12:11:42;;;;;;;5.53;1.70;;;13.50;99.90;;;;;;5073113;28;20573;-70
2023/03/13 12:14:13;;;;;;;5.70;1.45;;;13.50;99.90;;;;;;5046458;27;20231;-69
2023/03/13 12:16:45;;;;;;;3.22;1.40;;;13.60;99.90;;;;;;5076289;27;20200;-69
2023/03/13 12:19:17;;;;;;;4.57;1.73;;;13.70;99.90;;;;;;5079848;27;20196;-69
2023/03/13 12:21:49;;;;;;;5.70;1.85;;;13.70;99.90;;;;;;5073087;28;20199;-69
2023/03/13 12:24:22;;;;;;;3.58;1.52;;;13.80;99.90;;;;;;5083500;27;20656;-69
2023/03/13 12:26:54;;;;;;;3.05;1.45;;;13.80;99.90;;;;;;5066588;27;20208;-69
2023/03/13 12:29:35;;;;;;;5.13;1.50;;;13.90;99.90;;;;;;5048831;27;20227;-70
2023/03/13 12:32:09;;;;;;;3.60;1.40;;;14.00;99.90;;;;;;5079683;27;20789;-69
2023/03/13 12:34:42;;;;;;;1.73;1.45;;;14.00;99.90;;;;;;5083968;28;20187;-69
2023/03/13 12:37:19;;;;;;;2.28;1.35;;;14.10;99.90;;;;;;5062489;28;20199;-69
2023/03/13 12:39:53;;;;;;;2.63;1.40;;;14.10;99.90;;;;;;5074846;28;20191;-69
2023/03/13 12:42:37;;;;;;;4.30;1.60;;;14.10;99.90;;;;;;5063726;27;20330;-69
2023/03/13 12:45:06;;;;;;;2.92;1.52;;;14.10;99.90;;;;;;5050579;28;20290;-70
2023/03/13 12:47:40;;;;;;;1.65;0.90;;;14.20;99.90;;;;;;5076965;28;20231;-69
2023/03/13 12:50:28;;;;;;;4.18;1.42;;;14.20;99.90;;;;;;5078321;27;20192;-69
2023/03/13 12:53:16;;;;;;;4.07;1.40;;;14.20;99.90;;;;;;5065087;27;20206;-69
2023/03/13 12:56:24;;;;;;;2.53;1.23;;;14.40;99.90;;;;;;5070385;27;20235;-70
2023/03/13 12:58:57;;;;;;;8.63;1.63;;;14.40;99.90;;;;;;5054046;27;20200;-69
2023/03/13 13:01:33;;;;;;;4.18;1.70;;;14.50;99.90;;;;;;5040338;28;20222;-69